sensor_id;sensor_type;location;lat;lon;timestamp;P1;durP1;ratioP1;P2;durP2;ratioP2
12076;SDS011;12420;42.676;23.262;2024-01-10T00:00:56;6.80;;;4.17;;
12076;SDS011;12420;42.676;23.262;2024-01-10T00:03:22;6.40;;;4.63;;
12076;SDS011;12420;42.676;23.262;2024-01-10T00:05:49;4.20;;;3.37;;
12076;SDS011;12420;42.676;23.262;2024-01-10T00:08:16;5.67;;;3.57;;
12076;SDS011;12420;42.676;23.262;2024-01-10T00:10:44;4.40;;;3.37;;
12076;SDS011;12420;42.676;23.262;2024-01-10T00:13:10;4.60;;;2.90;;
12076;SDS011;12420;42.676;23.262;2024-01-10T00:15:37;4.07;;;3.10;;
12076;SDS011;12420;42.676;23.262;2024-01-10T00:18:04;3.80;;;3.20;;
12076;SDS011;12420;42.676;23.262;2024-01-10T00:20:31;4.33;;;3.20;;
12076;SDS011;12420;42.676;23.262;2024-01-10T00:22:58;5.27;;;3.50;;
12076;SDS011;12420;42.676;23.262;2024-01-10T00:25:24;6.33;;;3.17;;
12076;SDS011;12420;42.676;23.262;2024-01-10T00:27:52;5.97;;;3.13;;
12076;SDS011;12420;42.676;23.262;2024-01-10T00:30:20;4.97;;;3.17;;
12076;SDS011;12420;42.676;23.262;2024-01-10T00:32:46;3.90;;;2.97;;
12076;SDS011;12420;42.676;23.262;2024-01-10T00:35:13;4.63;;;2.60;;
12076;SDS011;12420;42.676;23.262;2024-01-10T00:37:40;3.00;;;2.57;;
12076;SDS011;12420;42.676;23.262;2024-01-10T00:40:07;4.07;;;2.50;;
12076;SDS011;12420;42.676;23.262;2024-01-10T00:42:34;5.93;;;2.80;;
12076;SDS011;12420;42.676;23.262;2024-01-10T00:45:02;3.57;;;2.77;;
12076;SDS011;12420;42.676;23.262;2024-01-10T00:47:30;3.20;;;2.80;;
12076;SDS011;12420;42.676;23.262;2024-01-10T00:49:56;3.83;;;2.40;;
12076;SDS011;12420;42.676;23.262;2024-01-10T00:52:23;4.00;;;2.60;;
12076;SDS011;12420;42.676;23.262;2024-01-10T00:54:50;3.50;;;2.70;;
12076;SDS011;12420;42.676;23.262;2024-01-10T00:57:16;3.27;;;2.57;;
12076;SDS011;12420;42.676;23.262;2024-01-10T00:59:43;5.77;;;2.47;;
12076;SDS011;12420;42.676;23.262;2024-01-10T01:02:11;4.97;;;3.80;;
12076;SDS011;12420;42.676;23.262;2024-01-10T01:04:38;4.23;;;3.00;;
12076;SDS011;12420;42.676;23.262;2024-01-10T01:07:04;3.97;;;3.10;;
12076;SDS011;12420;42.676;23.262;2024-01-10T01:09:31;5.30;;;3.77;;
12076;SDS011;12420;42.676;23.262;2024-01-10T01:11:58;4.57;;;3.50;;
12076;SDS011;12420;42.676;23.262;2024-01-10T01:14:24;3.67;;;2.97;;
12076;SDS011;12420;42.676;23.262;2024-01-10T01:16:51;7.70;;;3.80;;
12076;SDS011;12420;42.676;23.262;2024-01-10T01:19:19;5.40;;;4.00;;
12076;SDS011;12420;42.676;23.262;2024-01-10T01:21:46;13.53;;;7.53;;
12076;SDS011;12420;42.676;23.262;2024-01-10T01:24:13;9.37;;;5.30;;
12076;SDS011;12420;42.676;23.262;2024-01-10T01:26:39;4.20;;;3.13;;
12076;SDS011;12420;42.676;23.262;2024-01-10T01:29:06;4.67;;;3.03;;
12076;SDS011;12420;42.676;23.262;2024-01-10T01:31:34;5.20;;;2.97;;
12076;SDS011;12420;42.676;23.262;2024-01-10T01:34:00;4.27;;;3.40;;
12076;SDS011;12420;42.676;23.262;2024-01-10T01:36:28;5.43;;;3.40;;
12076;SDS011;12420;42.676;23.262;2024-01-10T01:38:55;4.27;;;3.10;;
12076;SDS011;12420;42.676;23.262;2024-01-10T01:41:22;4.43;;;3.20;;
12076;SDS011;12420;42.676;23.262;2024-01-10T01:43:48;3.20;;;2.70;;
12076;SDS011;12420;42.676;23.262;2024-01-10T01:46:15;5.60;;;3.37;;
12076;SDS011;12420;42.676;23.262;2024-01-10T01:48:42;4.80;;;3.33;;
12076;SDS011;12420;42.676;23.262;2024-01-10T01:51:10;4.33;;;3.53;;
12076;SDS011;12420;42.676;23.262;2024-01-10T01:53:43;4.20;;;3.23;;
12076;SDS011;12420;42.676;23.262;2024-01-10T01:56:10;4.87;;;3.80;;
12076;SDS011;12420;42.676;23.262;2024-01-10T01:58:39;5.70;;;3.07;;
12076;SDS011;12420;42.676;23.262;2024-01-10T02:01:06;4.23;;;3.17;;
12076;SDS011;12420;42.676;23.262;2024-01-10T02:03:32;3.13;;;2.73;;
12076;SDS011;12420;42.676;23.262;2024-01-10T02:06:00;4.90;;;3.07;;
12076;SDS011;12420;42.676;23.262;2024-01-10T02:08:28;3.80;;;2.87;;
12076;SDS011;12420;42.676;23.262;2024-01-10T02:10:57;3.00;;;2.70;;
12076;SDS011;12420;42.676;23.262;2024-01-10T02:13:24;3.47;;;2.60;;
12076;SDS011;12420;42.676;23.262;2024-01-10T02:15:50;4.40;;;3.37;;
12076;SDS011;12420;42.676;23.262;2024-01-10T02:18:18;5.70;;;2.87;;
12076;SDS011;12420;42.676;23.262;2024-01-10T02:20:44;3.80;;;3.40;;
12076;SDS011;12420;42.676;23.262;2024-01-10T02:23:11;7.00;;;3.93;;
12076;SDS011;12420;42.676;23.262;2024-01-10T02:25:39;4.50;;;3.00;;
12076;SDS011;12420;42.676;23.262;2024-01-10T02:28:06;3.83;;;2.47;;
12076;SDS011;12420;42.676;23.262;2024-01-10T02:30:34;3.67;;;3.27;;
12076;SDS011;12420;42.676;23.262;2024-01-10T02:33:01;3.13;;;2.63;;
12076;SDS011;12420;42.676;23.262;2024-01-10T02:35:27;5.17;;;3.10;;
12076;SDS011;12420;42.676;23.262;2024-01-10T02:37:55;5.13;;;3.57;;
12076;SDS011;12420;42.676;23.262;2024-01-10T02:40:22;4.17;;;3.10;;
12076;SDS011;12420;42.676;23.262;2024-01-10T02:42:50;6.47;;;3.13;;
12076;SDS011;12420;42.676;23.262;2024-01-10T02:45:17;3.93;;;2.93;;
12076;SDS011;12420;42.676;23.262;2024-01-10T02:47:44;5.57;;;3.17;;
12076;SDS011;12420;42.676;23.262;2024-01-10T02:50:11;4.13;;;2.93;;
12076;SDS011;12420;42.676;23.262;2024-01-10T02:52:38;4.53;;;3.53;;
12076;SDS011;12420;42.676;23.262;2024-01-10T02:55:04;5.30;;;3.40;;
12076;SDS011;12420;42.676;23.262;2024-01-10T02:57:31;5.80;;;3.67;;
12076;SDS011;12420;42.676;23.262;2024-01-10T02:59:59;3.40;;;3.10;;
12076;SDS011;12420;42.676;23.262;2024-01-10T03:02:26;5.00;;;3.10;;
12076;SDS011;12420;42.676;23.262;2024-01-10T03:04:53;3.90;;;3.17;;
12076;SDS011;12420;42.676;23.262;2024-01-10T03:07:19;4.47;;;2.90;;
12076;SDS011;12420;42.676;23.262;2024-01-10T03:09:46;4.23;;;3.20;;
12076;SDS011;12420;42.676;23.262;2024-01-10T03:12:13;4.17;;;2.90;;
12076;SDS011;12420;42.676;23.262;2024-01-10T03:14:39;3.90;;;3.10;;
12076;SDS011;12420;42.676;23.262;2024-01-10T03:17:08;5.13;;;3.33;;
12076;SDS011;12420;42.676;23.262;2024-01-10T03:19:35;4.83;;;3.50;;
12076;SDS011;12420;42.676;23.262;2024-01-10T03:22:07;4.70;;;3.30;;
12076;SDS011;12420;42.676;23.262;2024-01-10T03:24:34;4.23;;;3.40;;
12076;SDS011;12420;42.676;23.262;2024-01-10T03:27:00;4.67;;;3.50;;
12076;SDS011;12420;42.676;23.262;2024-01-10T03:29:27;5.07;;;3.53;;
12076;SDS011;12420;42.676;23.262;2024-01-10T03:31:54;5.00;;;3.60;;
12076;SDS011;12420;42.676;23.262;2024-01-10T03:34:22;7.03;;;4.30;;
12076;SDS011;12420;42.676;23.262;2024-01-10T03:36:49;5.57;;;3.93;;
12076;SDS011;12420;42.676;23.262;2024-01-10T03:39:15;5.47;;;3.90;;
12076;SDS011;12420;42.676;23.262;2024-01-10T03:41:42;6.63;;;3.83;;
12076;SDS011;12420;42.676;23.262;2024-01-10T03:44:09;5.03;;;3.20;;
12076;SDS011;12420;42.676;23.262;2024-01-10T03:46:35;3.43;;;3.10;;
12076;SDS011;12420;42.676;23.262;2024-01-10T03:49:02;8.27;;;3.40;;
12076;SDS011;12420;42.676;23.262;2024-01-10T03:51:30;4.10;;;2.97;;
12076;SDS011;12420;42.676;23.262;2024-01-10T03:53:57;4.57;;;3.00;;
12076;SDS011;12420;42.676;23.262;2024-01-10T03:56:23;3.03;;;2.70;;
12076;SDS011;12420;42.676;23.262;2024-01-10T03:58:51;5.23;;;3.00;;
12076;SDS011;12420;42.676;23.262;2024-01-10T04:01:21;6.20;;;2.90;;
12076;SDS011;12420;42.676;23.262;2024-01-10T04:03:48;3.60;;;3.07;;
12076;SDS011;12420;42.676;23.262;2024-01-10T04:06:15;4.07;;;2.97;;
12076;SDS011;12420;42.676;23.262;2024-01-10T04:08:43;2.87;;;2.60;;
12076;SDS011;12420;42.676;23.262;2024-01-10T04:11:09;2.87;;;2.20;;
12076;SDS011;12420;42.676;23.262;2024-01-10T04:13:36;2.73;;;2.30;;
12076;SDS011;12420;42.676;23.262;2024-01-10T04:16:03;2.37;;;2.13;;
12076;SDS011;12420;42.676;23.262;2024-01-10T04:18:30;2.20;;;2.00;;
12076;SDS011;12420;42.676;23.262;2024-01-10T04:20:57;5.83;;;2.47;;
12076;SDS011;12420;42.676;23.262;2024-01-10T04:23:23;2.83;;;2.20;;
12076;SDS011;12420;42.676;23.262;2024-01-10T04:25:51;3.20;;;2.10;;
12076;SDS011;12420;42.676;23.262;2024-01-10T04:28:19;3.20;;;2.20;;
12076;SDS011;12420;42.676;23.262;2024-01-10T04:30:45;24.27;;;8.30;;
12076;SDS011;12420;42.676;23.262;2024-01-10T04:33:12;22.00;;;8.40;;
12076;SDS011;12420;42.676;23.262;2024-01-10T04:35:39;18.07;;;7.53;;
12076;SDS011;12420;42.676;23.262;2024-01-10T04:38:05;13.13;;;6.17;;
12076;SDS011;12420;42.676;23.262;2024-01-10T04:40:32;12.33;;;5.50;;
12076;SDS011;12420;42.676;23.262;2024-01-10T04:43:00;10.37;;;5.50;;
12076;SDS011;12420;42.676;23.262;2024-01-10T04:45:27;17.13;;;8.13;;
12076;SDS011;12420;42.676;23.262;2024-01-10T04:47:53;8.53;;;3.83;;
12076;SDS011;12420;42.676;23.262;2024-01-10T04:50:21;9.73;;;5.70;;
12076;SDS011;12420;42.676;23.262;2024-01-10T04:52:47;6.30;;;3.37;;
12076;SDS011;12420;42.676;23.262;2024-01-10T04:55:14;7.73;;;5.00;;
12076;SDS011;12420;42.676;23.262;2024-01-10T04:57:41;5.97;;;3.43;;
12076;SDS011;12420;42.676;23.262;2024-01-10T05:00:10;6.60;;;3.97;;
12076;SDS011;12420;42.676;23.262;2024-01-10T05:02:37;2.80;;;2.20;;
12076;SDS011;12420;42.676;23.262;2024-01-10T05:05:04;3.30;;;2.57;;
12076;SDS011;12420;42.676;23.262;2024-01-10T05:07:31;2.93;;;2.27;;
12076;SDS011;12420;42.676;23.262;2024-01-10T05:09:58;3.10;;;2.30;;
12076;SDS011;12420;42.676;23.262;2024-01-10T05:12:25;4.00;;;2.60;;
12076;SDS011;12420;42.676;23.262;2024-01-10T05:14:51;6.53;;;2.77;;
12076;SDS011;12420;42.676;23.262;2024-01-10T05:17:19;4.67;;;2.83;;
12076;SDS011;12420;42.676;23.262;2024-01-10T05:19:46;3.83;;;2.60;;
12076;SDS011;12420;42.676;23.262;2024-01-10T05:22:13;2.43;;;2.00;;
12076;SDS011;12420;42.676;23.262;2024-01-10T05:24:40;5.00;;;3.60;;
12076;SDS011;12420;42.676;23.262;2024-01-10T05:27:06;5.00;;;3.43;;
12076;SDS011;12420;42.676;23.262;2024-01-10T05:29:33;6.27;;;4.30;;
12076;SDS011;12420;42.676;23.262;2024-01-10T05:32:00;5.33;;;3.13;;
12076;SDS011;12420;42.676;23.262;2024-01-10T05:34:28;3.10;;;2.67;;
12076;SDS011;12420;42.676;23.262;2024-01-10T05:36:54;2.77;;;2.23;;
12076;SDS011;12420;42.676;23.262;2024-01-10T05:39:21;4.43;;;2.77;;
12076;SDS011;12420;42.676;23.262;2024-01-10T05:41:48;3.13;;;2.40;;
12076;SDS011;12420;42.676;23.262;2024-01-10T05:44:15;4.10;;;3.27;;
12076;SDS011;12420;42.676;23.262;2024-01-10T05:46:42;3.47;;;2.90;;
12076;SDS011;12420;42.676;23.262;2024-01-10T05:49:09;3.57;;;2.70;;
12076;SDS011;12420;42.676;23.262;2024-01-10T05:51:38;4.13;;;3.13;;
12076;SDS011;12420;42.676;23.262;2024-01-10T05:54:05;4.47;;;3.00;;
12076;SDS011;12420;42.676;23.262;2024-01-10T05:56:32;5.77;;;3.70;;
12076;SDS011;12420;42.676;23.262;2024-01-10T05:58:59;10.23;;;4.17;;
12076;SDS011;12420;42.676;23.262;2024-01-10T06:01:26;10.47;;;4.20;;
12076;SDS011;12420;42.676;23.262;2024-01-10T06:03:53;4.43;;;3.20;;
12076;SDS011;12420;42.676;23.262;2024-01-10T06:06:21;5.53;;;3.17;;
12076;SDS011;12420;42.676;23.262;2024-01-10T06:08:49;7.97;;;4.30;;
12076;SDS011;12420;42.676;23.262;2024-01-10T06:11:16;3.83;;;2.80;;
12076;SDS011;12420;42.676;23.262;2024-01-10T06:13:43;4.43;;;2.90;;
12076;SDS011;12420;42.676;23.262;2024-01-10T06:16:10;3.90;;;2.70;;
12076;SDS011;12420;42.676;23.262;2024-01-10T06:18:38;3.10;;;2.70;;
12076;SDS011;12420;42.676;23.262;2024-01-10T06:21:05;5.93;;;3.07;;
12076;SDS011;12420;42.676;23.262;2024-01-10T06:23:31;6.70;;;4.23;;
12076;SDS011;12420;42.676;23.262;2024-01-10T06:25:59;12.47;;;6.53;;
12076;SDS011;12420;42.676;23.262;2024-01-10T06:28:27;10.57;;;6.67;;
12076;SDS011;12420;42.676;23.262;2024-01-10T06:30:54;10.27;;;5.30;;
12076;SDS011;12420;42.676;23.262;2024-01-10T06:33:20;5.33;;;3.00;;
12076;SDS011;12420;42.676;23.262;2024-01-10T06:35:47;7.30;;;3.67;;
12076;SDS011;12420;42.676;23.262;2024-01-10T06:38:14;10.10;;;4.50;;
12076;SDS011;12420;42.676;23.262;2024-01-10T06:40:41;12.33;;;5.00;;
12076;SDS011;12420;42.676;23.262;2024-01-10T06:43:11;10.30;;;5.27;;
12076;SDS011;12420;42.676;23.262;2024-01-10T06:45:38;8.13;;;3.80;;
12076;SDS011;12420;42.676;23.262;2024-01-10T06:48:05;7.00;;;3.50;;
12076;SDS011;12420;42.676;23.262;2024-01-10T06:50:32;5.27;;;3.60;;
12076;SDS011;12420;42.676;23.262;2024-01-10T06:52:59;12.03;;;5.23;;
12076;SDS011;12420;42.676;23.262;2024-01-10T06:55:26;6.17;;;4.00;;
12076;SDS011;12420;42.676;23.262;2024-01-10T06:57:54;10.27;;;5.93;;
12076;SDS011;12420;42.676;23.262;2024-01-10T07:00:22;16.50;;;6.43;;
12076;SDS011;12420;42.676;23.262;2024-01-10T07:02:49;14.33;;;7.27;;
12076;SDS011;12420;42.676;23.262;2024-01-10T07:05:16;10.47;;;6.10;;
12076;SDS011;12420;42.676;23.262;2024-01-10T07:07:44;10.93;;;5.43;;
12076;SDS011;12420;42.676;23.262;2024-01-10T07:10:11;11.23;;;5.80;;
12076;SDS011;12420;42.676;23.262;2024-01-10T07:12:38;9.13;;;5.27;;
12076;SDS011;12420;42.676;23.262;2024-01-10T07:15:05;10.80;;;6.37;;
12076;SDS011;12420;42.676;23.262;2024-01-10T07:17:34;11.50;;;5.03;;
12076;SDS011;12420;42.676;23.262;2024-01-10T07:20:01;10.60;;;5.73;;
12076;SDS011;12420;42.676;23.262;2024-01-10T07:22:28;14.07;;;6.80;;
12076;SDS011;12420;42.676;23.262;2024-01-10T07:24:54;12.53;;;6.57;;
12076;SDS011;12420;42.676;23.262;2024-01-10T07:27:22;12.57;;;6.87;;
12076;SDS011;12420;42.676;23.262;2024-01-10T07:29:49;13.87;;;7.27;;
12076;SDS011;12420;42.676;23.262;2024-01-10T07:32:16;12.80;;;7.60;;
12076;SDS011;12420;42.676;23.262;2024-01-10T07:34:46;11.33;;;6.63;;
12076;SDS011;12420;42.676;23.262;2024-01-10T07:37:13;10.77;;;6.20;;
12076;SDS011;12420;42.676;23.262;2024-01-10T07:39:42;8.87;;;5.67;;
12076;SDS011;12420;42.676;23.262;2024-01-10T07:42:08;11.57;;;6.43;;
12076;SDS011;12420;42.676;23.262;2024-01-10T07:44:35;7.73;;;4.93;;
12076;SDS011;12420;42.676;23.262;2024-01-10T07:47:02;6.03;;;3.80;;
12076;SDS011;12420;42.676;23.262;2024-01-10T07:49:29;5.53;;;3.37;;
12076;SDS011;12420;42.676;23.262;2024-01-10T07:51:58;3.67;;;2.73;;
12076;SDS011;12420;42.676;23.262;2024-01-10T07:54:25;6.13;;;3.40;;
12076;SDS011;12420;42.676;23.262;2024-01-10T07:56:52;5.70;;;3.13;;
12076;SDS011;12420;42.676;23.262;2024-01-10T07:59:19;5.63;;;3.50;;
12076;SDS011;12420;42.676;23.262;2024-01-10T08:01:54;9.80;;;4.70;;
12076;SDS011;12420;42.676;23.262;2024-01-10T08:04:23;6.73;;;4.00;;
12076;SDS011;12420;42.676;23.262;2024-01-10T08:06:50;8.53;;;4.00;;
12076;SDS011;12420;42.676;23.262;2024-01-10T08:09:17;3.37;;;2.07;;
12076;SDS011;12420;42.676;23.262;2024-01-10T08:11:45;2.40;;;2.07;;
12076;SDS011;12420;42.676;23.262;2024-01-10T08:14:12;3.27;;;2.20;;
12076;SDS011;12420;42.676;23.262;2024-01-10T08:16:39;3.13;;;2.17;;
12076;SDS011;12420;42.676;23.262;2024-01-10T08:19:05;1.90;;;1.80;;
12076;SDS011;12420;42.676;23.262;2024-01-10T08:21:32;2.03;;;1.60;;
12076;SDS011;12420;42.676;23.262;2024-01-10T08:23:59;3.13;;;2.47;;
12076;SDS011;12420;42.676;23.262;2024-01-10T08:26:28;6.00;;;2.70;;
12076;SDS011;12420;42.676;23.262;2024-01-10T08:28:57;5.33;;;3.33;;
12076;SDS011;12420;42.676;23.262;2024-01-10T08:31:23;5.50;;;2.93;;
12076;SDS011;12420;42.676;23.262;2024-01-10T08:33:52;6.70;;;3.73;;
12076;SDS011;12420;42.676;23.262;2024-01-10T08:36:19;5.63;;;3.30;;
12076;SDS011;12420;42.676;23.262;2024-01-10T08:38:45;5.30;;;3.30;;
12076;SDS011;12420;42.676;23.262;2024-01-10T08:41:12;4.87;;;3.40;;
12076;SDS011;12420;42.676;23.262;2024-01-10T08:43:40;6.37;;;4.03;;
12076;SDS011;12420;42.676;23.262;2024-01-10T08:46:07;5.60;;;3.63;;
12076;SDS011;12420;42.676;23.262;2024-01-10T08:48:34;4.10;;;3.00;;
12076;SDS011;12420;42.676;23.262;2024-01-10T08:51:01;3.83;;;2.97;;
12076;SDS011;12420;42.676;23.262;2024-01-10T08:53:28;10.70;;;4.93;;
12076;SDS011;12420;42.676;23.262;2024-01-10T08:55:55;7.47;;;3.90;;
12076;SDS011;12420;42.676;23.262;2024-01-10T08:58:23;4.30;;;3.17;;
12076;SDS011;12420;42.676;23.262;2024-01-10T09:00:51;5.20;;;3.50;;
12076;SDS011;12420;42.676;23.262;2024-01-10T09:03:18;6.77;;;3.77;;
12076;SDS011;12420;42.676;23.262;2024-01-10T09:05:44;7.67;;;4.03;;
12076;SDS011;12420;42.676;23.262;2024-01-10T09:08:11;6.10;;;4.03;;
12076;SDS011;12420;42.676;23.262;2024-01-10T09:10:38;5.20;;;3.90;;
12076;SDS011;12420;42.676;23.262;2024-01-10T09:13:04;7.90;;;4.17;;
12076;SDS011;12420;42.676;23.262;2024-01-10T09:15:31;5.73;;;4.07;;
12076;SDS011;12420;42.676;23.262;2024-01-10T09:17:59;8.33;;;4.10;;
12076;SDS011;12420;42.676;23.262;2024-01-10T09:20:26;7.90;;;4.53;;
12076;SDS011;12420;42.676;23.262;2024-01-10T09:22:52;5.93;;;4.13;;
12076;SDS011;12420;42.676;23.262;2024-01-10T09:25:19;5.87;;;4.03;;
12076;SDS011;12420;42.676;23.262;2024-01-10T09:27:46;6.73;;;4.40;;
12076;SDS011;12420;42.676;23.262;2024-01-10T09:30:13;6.83;;;4.03;;
12076;SDS011;12420;42.676;23.262;2024-01-10T09:32:41;10.30;;;4.27;;
12076;SDS011;12420;42.676;23.262;2024-01-10T09:35:09;6.50;;;4.40;;
12076;SDS011;12420;42.676;23.262;2024-01-10T09:37:36;5.67;;;4.10;;
12076;SDS011;12420;42.676;23.262;2024-01-10T09:40:03;5.70;;;4.10;;
12076;SDS011;12420;42.676;23.262;2024-01-10T09:42:31;6.37;;;3.90;;
12076;SDS011;12420;42.676;23.262;2024-01-10T09:45:00;6.30;;;3.63;;
12076;SDS011;12420;42.676;23.262;2024-01-10T09:47:28;7.30;;;3.70;;
12076;SDS011;12420;42.676;23.262;2024-01-10T09:49:56;13.10;;;5.40;;
12076;SDS011;12420;42.676;23.262;2024-01-10T09:52:25;7.63;;;5.03;;
12076;SDS011;12420;42.676;23.262;2024-01-10T09:54:54;6.90;;;3.97;;
12076;SDS011;12420;42.676;23.262;2024-01-10T09:57:21;3.73;;;3.17;;
12076;SDS011;12420;42.676;23.262;2024-01-10T09:59:49;5.17;;;4.17;;
12076;SDS011;12420;42.676;23.262;2024-01-10T10:02:17;5.70;;;3.70;;
12076;SDS011;12420;42.676;23.262;2024-01-10T10:04:46;5.80;;;3.67;;
12076;SDS011;12420;42.676;23.262;2024-01-10T10:07:20;4.70;;;3.40;;
12076;SDS011;12420;42.676;23.262;2024-01-10T10:09:48;5.23;;;3.40;;
12076;SDS011;12420;42.676;23.262;2024-01-10T10:12:14;5.57;;;3.73;;
12076;SDS011;12420;42.676;23.262;2024-01-10T10:14:41;5.97;;;3.90;;
12076;SDS011;12420;42.676;23.262;2024-01-10T10:17:14;5.17;;;3.60;;
12076;SDS011;12420;42.676;23.262;2024-01-10T10:19:41;8.00;;;4.30;;
12076;SDS011;12420;42.676;23.262;2024-01-10T10:22:09;8.90;;;4.77;;
12076;SDS011;12420;42.676;23.262;2024-01-10T10:24:37;7.07;;;4.87;;
12076;SDS011;12420;42.676;23.262;2024-01-10T10:27:08;7.13;;;5.00;;
12076;SDS011;12420;42.676;23.262;2024-01-10T10:29:35;7.70;;;4.90;;
12076;SDS011;12420;42.676;23.262;2024-01-10T10:32:02;7.53;;;4.73;;
12076;SDS011;12420;42.676;23.262;2024-01-10T10:34:30;7.63;;;4.50;;
12076;SDS011;12420;42.676;23.262;2024-01-10T10:36:57;39.50;;;21.77;;
12076;SDS011;12420;42.676;23.262;2024-01-10T10:39:24;10.97;;;6.97;;
12076;SDS011;12420;42.676;23.262;2024-01-10T10:41:51;8.70;;;4.73;;
12076;SDS011;12420;42.676;23.262;2024-01-10T10:44:21;9.27;;;5.70;;
12076;SDS011;12420;42.676;23.262;2024-01-10T10:46:52;14.47;;;6.20;;
12076;SDS011;12420;42.676;23.262;2024-01-10T10:49:21;10.90;;;5.93;;
12076;SDS011;12420;42.676;23.262;2024-01-10T10:51:54;10.90;;;5.97;;
12076;SDS011;12420;42.676;23.262;2024-01-10T10:54:25;8.73;;;6.00;;
12076;SDS011;12420;42.676;23.262;2024-01-10T10:56:54;9.07;;;6.40;;
12076;SDS011;12420;42.676;23.262;2024-01-10T10:59:25;10.07;;;6.70;;
12076;SDS011;12420;42.676;23.262;2024-01-10T11:01:53;12.20;;;7.17;;
12076;SDS011;12420;42.676;23.262;2024-01-10T11:04:20;10.90;;;6.57;;
12076;SDS011;12420;42.676;23.262;2024-01-10T11:06:48;8.70;;;6.57;;
12076;SDS011;12420;42.676;23.262;2024-01-10T11:09:15;9.77;;;5.90;;
12076;SDS011;12420;42.676;23.262;2024-01-10T11:11:50;11.30;;;6.10;;
12076;SDS011;12420;42.676;23.262;2024-01-10T11:14:39;11.73;;;6.00;;
12076;SDS011;12420;42.676;23.262;2024-01-10T11:17:26;10.47;;;5.57;;
12076;SDS011;12420;42.676;23.262;2024-01-10T11:20:14;8.23;;;5.90;;
12076;SDS011;12420;42.676;23.262;2024-01-10T11:22:59;10.57;;;6.27;;
12076;SDS011;12420;42.676;23.262;2024-01-10T11:25:44;11.53;;;5.90;;
12076;SDS011;12420;42.676;23.262;2024-01-10T11:28:11;13.13;;;5.80;;
12076;SDS011;12420;42.676;23.262;2024-01-10T11:30:48;12.80;;;6.30;;
12076;SDS011;12420;42.676;23.262;2024-01-10T11:33:20;11.37;;;6.17;;
12076;SDS011;12420;42.676;23.262;2024-01-10T11:36:07;13.33;;;6.93;;
12076;SDS011;12420;42.676;23.262;2024-01-10T11:38:42;14.17;;;6.57;;
12076;SDS011;12420;42.676;23.262;2024-01-10T11:41:10;11.43;;;6.20;;
12076;SDS011;12420;42.676;23.262;2024-01-10T11:43:38;10.07;;;6.50;;
12076;SDS011;12420;42.676;23.262;2024-01-10T11:46:07;10.77;;;6.60;;
12076;SDS011;12420;42.676;23.262;2024-01-10T11:48:36;7.77;;;5.37;;
12076;SDS011;12420;42.676;23.262;2024-01-10T11:51:04;9.13;;;6.07;;
12076;SDS011;12420;42.676;23.262;2024-01-10T11:53:38;8.70;;;6.07;;
12076;SDS011;12420;42.676;23.262;2024-01-10T11:56:08;11.70;;;6.40;;
12076;SDS011;12420;42.676;23.262;2024-01-10T11:58:51;8.83;;;5.70;;
12076;SDS011;12420;42.676;23.262;2024-01-10T12:01:20;10.47;;;6.80;;
12076;SDS011;12420;42.676;23.262;2024-01-10T12:03:48;9.73;;;6.50;;
12076;SDS011;12420;42.676;23.262;2024-01-10T12:06:18;13.10;;;6.80;;
12076;SDS011;12420;42.676;23.262;2024-01-10T12:08:47;16.23;;;7.23;;
12076;SDS011;12420;42.676;23.262;2024-01-10T12:11:13;9.73;;;6.63;;
12076;SDS011;12420;42.676;23.262;2024-01-10T12:13:41;11.03;;;6.73;;
12076;SDS011;12420;42.676;23.262;2024-01-10T12:16:09;14.73;;;7.50;;
12076;SDS011;12420;42.676;23.262;2024-01-10T12:18:38;14.00;;;7.03;;
12076;SDS011;12420;42.676;23.262;2024-01-10T12:21:04;11.60;;;7.63;;
12076;SDS011;12420;42.676;23.262;2024-01-10T12:23:33;11.50;;;7.03;;
12076;SDS011;12420;42.676;23.262;2024-01-10T12:26:01;14.00;;;7.40;;
12076;SDS011;12420;42.676;23.262;2024-01-10T12:28:29;10.53;;;7.20;;
12076;SDS011;12420;42.676;23.262;2024-01-10T12:30:57;14.07;;;8.10;;
12076;SDS011;12420;42.676;23.262;2024-01-10T12:33:24;11.67;;;7.57;;
12076;SDS011;12420;42.676;23.262;2024-01-10T12:36:08;11.33;;;7.70;;
12076;SDS011;12420;42.676;23.262;2024-01-10T12:38:36;12.77;;;7.93;;
12076;SDS011;12420;42.676;23.262;2024-01-10T12:41:04;12.40;;;7.73;;
12076;SDS011;12420;42.676;23.262;2024-01-10T12:43:34;12.43;;;6.90;;
12076;SDS011;12420;42.676;23.262;2024-01-10T12:46:05;13.70;;;8.13;;
12076;SDS011;12420;42.676;23.262;2024-01-10T12:48:32;14.77;;;7.87;;
12076;SDS011;12420;42.676;23.262;2024-01-10T12:51:01;18.63;;;9.33;;
12076;SDS011;12420;42.676;23.262;2024-01-10T12:53:32;10.87;;;6.63;;
12076;SDS011;12420;42.676;23.262;2024-01-10T12:56:00;11.00;;;6.53;;
12076;SDS011;12420;42.676;23.262;2024-01-10T12:58:27;10.33;;;6.40;;
12076;SDS011;12420;42.676;23.262;2024-01-10T13:00:54;10.77;;;6.20;;
12076;SDS011;12420;42.676;23.262;2024-01-10T13:03:22;14.57;;;7.00;;
12076;SDS011;12420;42.676;23.262;2024-01-10T13:05:49;15.33;;;7.17;;
12076;SDS011;12420;42.676;23.262;2024-01-10T13:08:16;15.17;;;7.27;;
12076;SDS011;12420;42.676;23.262;2024-01-10T13:10:45;17.97;;;8.70;;
12076;SDS011;12420;42.676;23.262;2024-01-10T13:13:13;16.17;;;7.70;;
12076;SDS011;12420;42.676;23.262;2024-01-10T13:15:40;15.70;;;7.97;;
12076;SDS011;12420;42.676;23.262;2024-01-10T13:18:07;25.17;;;10.40;;
12076;SDS011;12420;42.676;23.262;2024-01-10T13:20:35;18.77;;;8.50;;
12076;SDS011;12420;42.676;23.262;2024-01-10T13:23:01;16.43;;;8.13;;
12076;SDS011;12420;42.676;23.262;2024-01-10T13:25:28;15.07;;;8.43;;
12076;SDS011;12420;42.676;23.262;2024-01-10T13:27:56;12.50;;;6.70;;
12076;SDS011;12420;42.676;23.262;2024-01-10T13:30:23;19.60;;;8.57;;
12076;SDS011;12420;42.676;23.262;2024-01-10T13:32:50;25.20;;;11.17;;
12076;SDS011;12420;42.676;23.262;2024-01-10T13:35:16;17.83;;;10.13;;
12076;SDS011;12420;42.676;23.262;2024-01-10T13:37:43;18.30;;;8.77;;
12076;SDS011;12420;42.676;23.262;2024-01-10T13:40:11;20.97;;;9.70;;
12076;SDS011;12420;42.676;23.262;2024-01-10T13:42:38;15.10;;;8.93;;
12076;SDS011;12420;42.676;23.262;2024-01-10T13:45:07;18.17;;;10.50;;
12076;SDS011;12420;42.676;23.262;2024-01-10T13:47:36;17.90;;;9.63;;
12076;SDS011;12420;42.676;23.262;2024-01-10T13:50:03;17.90;;;10.10;;
12076;SDS011;12420;42.676;23.262;2024-01-10T13:52:31;23.80;;;12.77;;
12076;SDS011;12420;42.676;23.262;2024-01-10T13:54:57;14.03;;;9.47;;
12076;SDS011;12420;42.676;23.262;2024-01-10T13:57:24;20.77;;;11.83;;
12076;SDS011;12420;42.676;23.262;2024-01-10T13:59:51;19.60;;;11.47;;
12076;SDS011;12420;42.676;23.262;2024-01-10T14:02:22;20.77;;;10.57;;
12076;SDS011;12420;42.676;23.262;2024-01-10T14:04:48;19.00;;;11.43;;
12076;SDS011;12420;42.676;23.262;2024-01-10T14:07:15;18.33;;;11.23;;
12076;SDS011;12420;42.676;23.262;2024-01-10T14:09:42;18.30;;;10.97;;
12076;SDS011;12420;42.676;23.262;2024-01-10T14:12:10;27.87;;;14.97;;
12076;SDS011;12420;42.676;23.262;2024-01-10T14:14:37;27.90;;;14.53;;
12076;SDS011;12420;42.676;23.262;2024-01-10T14:17:04;20.73;;;12.67;;
12076;SDS011;12420;42.676;23.262;2024-01-10T14:19:32;24.87;;;13.33;;
12076;SDS011;12420;42.676;23.262;2024-01-10T14:21:58;22.03;;;12.23;;
12076;SDS011;12420;42.676;23.262;2024-01-10T14:24:25;24.93;;;14.47;;
12076;SDS011;12420;42.676;23.262;2024-01-10T14:26:52;25.13;;;15.67;;
12076;SDS011;12420;42.676;23.262;2024-01-10T14:29:19;27.80;;;15.13;;
12076;SDS011;12420;42.676;23.262;2024-01-10T14:31:47;26.07;;;14.80;;